Time;durP1;ratioP1;P1;durP2;ratioP2;P2;SDS_P1;SDS_P2;PMS_P1;PMS_P2;Temp;Humidity;BMP_temperature;BMP_pressure;BME280_temperature;BME280_humidity;BME280_pressure;Samples;Min_cycle;Max_cycle;Signal;HPM_P1;HPM_P2
2022/03/11 00:02:18;;;;;;;;;22.00;20.00;;;;;13.92;44.16;100982.03;5002913;28;45457;-84
2022/03/11 00:04:45;;;;;;;;;18.50;18.00;;;;;13.83;44.12;100975.09;4985341;28;44778;-84
2022/03/11 00:07:11;;;;;;;;;27.75;22.75;;;;;13.89;44.41;100982.09;5003171;28;45412;-83
2022/03/11 00:09:37;;;;;;;;;23.25;20.25;;;;;13.79;44.33;100962.81;5014712;28;45446;-83
2022/03/11 00:12:04;;;;;;;;;24.50;23.25;;;;;13.80;43.96;100958.41;5002388;28;46540;-83
2022/03/11 00:14:29;;;;;;;;;28.00;25.00;;;;;13.78;43.94;100952.25;4989580;28;45294;-83
2022/03/11 00:16:55;;;;;;;;;23.50;22.00;;;;;13.82;44.62;100968.06;5012451;28;45507;-83
2022/03/11 00:19:20;;;;;;;;;19.50;19.50;;;;;13.75;44.16;100952.28;4974477;28;45465;-82
2022/03/11 00:21:46;;;;;;;;;26.75;24.00;;;;;13.77;44.20;100956.66;5004689;28;45195;-84
2022/03/11 00:24:12;;;;;;;;;24.50;21.75;;;;;13.75;44.17;100939.06;5005762;28;45232;-84
2022/03/11 00:26:38;;;;;;;;;26.50;21.00;;;;;13.66;44.10;100932.13;5003839;28;45198;-83
2022/03/11 00:29:03;;;;;;;;;24.75;24.50;;;;;13.63;43.96;100929.50;4997173;28;45405;-84
2022/03/11 00:31:29;;;;;;;;;29.50;23.25;;;;;13.63;44.20;100926.84;5004338;28;46333;-84
2022/03/11 00:33:55;;;;;;;;;27.00;25.25;;;;;13.65;44.59;100941.81;5003705;28;45333;-84
2022/03/11 00:36:21;;;;;;;;;27.50;23.00;;;;;13.54;44.43;100927.84;4985876;28;45392;-84
2022/03/11 00:38:46;;;;;;;;;23.50;21.25;;;;;13.53;44.60;100923.47;5002039;28;45580;-84
2022/03/11 00:41:11;;;;;;;;;27.00;25.00;;;;;13.58;44.59;100939.25;5004334;28;46362;-83
2022/03/11 00:43:37;;;;;;;;;27.75;23.25;;;;;13.52;44.87;100934.94;5004336;28;45424;-84
2022/03/11 00:46:03;;;;;;;;;26.00;23.75;;;;;13.54;44.55;100935.78;4988145;28;45275;-84
2022/03/11 00:48:28;;;;;;;;;21.75;21.75;;;;;13.48;44.77;100920.00;4998354;28;45474;-84
2022/03/11 00:50:54;;;;;;;;;24.25;22.75;;;;;13.48;44.96;100921.78;5001419;28;46674;-83
2022/03/11 00:53:20;;;;;;;;;23.75;22.50;;;;;13.50;44.80;100926.16;4982805;28;44910;-84
2022/03/11 00:55:45;;;;;;;;;24.50;23.00;;;;;13.44;45.16;100911.25;4988619;28;45436;-84
2022/03/11 00:58:11;;;;;;;;;27.00;22.50;;;;;13.34;44.97;100901.69;4988224;28;45261;-83
2022/03/11 01:00:36;;;;;;;;;23.75;22.25;;;;;13.33;45.04;100899.03;5004770;28;45234;-84
2022/03/11 01:03:02;;;;;;;;;27.75;23.00;;;;;13.25;45.56;100899.09;5000851;28;45265;-83
2022/03/11 01:05:27;;;;;;;;;26.50;23.00;;;;;13.22;45.34;100901.78;4986964;28;45231;-84
2022/03/11 01:07:53;;;;;;;;;24.75;24.75;;;;;13.19;45.40;100892.13;4987404;28;45461;-85
2022/03/11 01:10:19;;;;;;;;;24.50;23.00;;;;;13.20;45.62;100906.22;5015944;28;46976;-83
2022/03/11 01:12:45;;;;;;;;;25.75;23.50;;;;;13.25;45.60;100910.53;5006555;28;45545;-85
2022/03/11 01:15:11;;;;;;;;;24.25;19.50;;;;;13.14;45.70;100893.06;5010182;28;45405;-84
2022/03/11 01:17:37;;;;;;;;;28.00;23.50;;;;;13.11;45.67;100887.81;4993777;28;45889;-84
2022/03/11 01:20:07;;;;;;;;;25.75;21.50;;;;;13.11;45.79;100877.25;5002415;28;47698;-85
2022/03/11 01:22:33;;;;;;;;;25.00;23.00;;;;;13.10;46.15;100888.72;5003055;28;45391;-84
2022/03/11 01:24:59;;;;;;;;;29.50;26.25;;;;;13.12;46.10;100894.84;4987480;28;45386;-84
2022/03/11 01:27:25;;;;;;;;;22.75;21.50;;;;;13.04;45.98;100871.16;4987740;28;45685;-83
2022/03/11 01:29:51;;;;;;;;;25.75;23.75;;;;;13.04;46.07;100868.50;4987122;28;47433;-83
2022/03/11 01:32:16;;;;;;;;;22.25;20.75;;;;;13.00;46.18;100859.75;4988103;28;45779;-83
2022/03/11 01:34:42;;;;;;;;;24.00;18.75;;;;;13.10;46.34;100879.03;5003838;28;45456;-83
2022/03/11 01:37:10;;;;;;;;;23.25;20.25;;;;;13.02;46.17;100870.31;4988172;28;45445;-82
2022/03/11 01:39:36;;;;;;;;;23.25;22.25;;;;;13.01;46.87;100872.06;5005356;28;46512;-84
2022/03/11 01:42:01;;;;;;;;;21.00;21.00;;;;;12.94;46.31;100864.25;4987720;28;45313;-84
2022/03/11 01:44:27;;;;;;;;;20.50;18.75;;;;;12.89;46.31;100855.50;5005187;28;45266;-84
2022/03/11 01:46:54;;;;;;;;;18.50;16.25;;;;;12.83;46.77;100855.53;5000630;28;45314;-84
2022/03/11 01:49:20;;;;;;;;;21.75;20.75;;;;;12.75;46.82;100847.69;4986767;28;47133;-83
2022/03/11 01:51:46;;;;;;;;;27.25;24.75;;;;;12.75;46.79;100855.63;4988032;28;45324;-84
2022/03/11 01:54:12;;;;;;;;;28.75;21.50;;;;;12.66;47.28;100843.41;5005663;28;45439;-84
2022/03/11 01:56:41;;;;;;;;;21.75;19.25;;;;;12.74;47.09;100854.75;4985137;28;45250;-83
2022/03/11 01:59:09;;;;;;;;;21.75;19.75;;;;;12.68;47.18;100846.03;4975108;28;47874;-84
2022/03/11 02:01:34;;;;;;;;;21.50;20.50;;;;;12.67;46.95;100847.81;5005137;28;45400;-83
2022/03/11 02:04:00;;;;;;;;;19.50;18.75;;;;;12.65;47.31;100839.03;5004862;28;45436;-84
2022/03/11 02:06:26;;;;;;;;;24.25;22.00;;;;;12.70;47.16;100854.81;4987561;28;45606;-83
2022/03/11 02:08:53;;;;;;;;;22.75;19.00;;;;;12.70;47.15;100850.41;4987536;28;47314;-83
2022/03/11 02:11:19;;;;;;;;;23.50;20.75;;;;;12.63;47.30;100832.88;4986702;28;46041;-83
2022/03/11 02:13:48;;;;;;;;;21.25;17.25;;;;;12.71;47.10;100841.59;4986829;28;45493;-82
2022/03/11 02:16:15;;;;;;;;;20.75;18.25;;;;;12.74;47.32;100838.91;5014864;28;45537;-82
2022/03/11 02:18:41;;;;;;;;;23.50;21.75;;;;;12.75;47.20;100850.34;4997341;28;45451;-82
2022/03/11 02:21:07;;;;;;;;;22.75;20.75;;;;;12.79;47.41;100858.22;4981081;28;45448;-83
2022/03/11 02:23:50;;;;;;;;;21.50;20.25;;;;;12.77;47.47;100861.78;4987102;28;45318;-84
2022/03/11 02:26:17;;;;;;;;;21.75;20.00;;;;;12.71;47.23;100844.22;5003388;28;45444;-83
2022/03/11 02:28:44;;;;;;;;;24.50;20.75;;;;;12.73;47.39;100845.09;5006350;28;46094;-83
2022/03/11 02:31:10;;;;;;;;;23.25;18.75;;;;;12.69;47.33;100830.16;5004409;28;45202;-84
2022/03/11 02:33:35;;;;;;;;;22.75;21.50;;;;;12.73;47.22;100834.53;4988141;28;45255;-83
2022/03/11 02:36:01;;;;;;;;;17.50;17.50;;;;;12.70;47.28;100829.28;5006261;28;45154;-84
2022/03/11 02:38:27;;;;;;;;;22.75;17.75;;;;;12.68;47.32;100822.25;4982810;28;46184;-84
2022/03/11 02:40:53;;;;;;;;;19.00;18.25;;;;;12.61;47.76;100824.09;4988086;28;45215;-84
2022/03/11 02:43:18;;;;;;;;;19.75;18.00;;;;;12.58;47.60;100827.63;5004979;28;45521;-84
2022/03/11 02:45:44;;;;;;;;;19.00;19.00;;;;;12.62;47.88;100830.25;4987885;28;45436;-84
2022/03/11 02:48:10;;;;;;;;;22.00;18.75;;;;;12.57;47.74;100827.66;5005704;28;46212;-83
2022/03/11 02:50:35;;;;;;;;;24.00;21.50;;;;;12.58;47.64;100825.00;4987895;28;45543;-83
2022/03/11 02:53:01;;;;;;;;;18.50;17.25;;;;;12.61;47.79;100825.84;4988365;28;45267;-84
2022/03/11 02:55:26;;;;;;;;;20.25;18.75;;;;;12.58;47.74;100813.56;5005849;28;45508;-83
2022/03/11 02:57:52;;;;;;;;;20.00;16.00;;;;;12.55;47.79;100819.75;4988182;28;47415;-84
2022/03/11 03:00:18;;;;;;;;;15.00;14.50;;;;;12.47;48.09;100811.03;4996507;28;45341;-83
2022/03/11 03:02:43;;;;;;;;;23.75;20.25;;;;;12.43;48.31;100805.78;5021208;28;45388;-84
2022/03/11 03:05:09;;;;;;;;;22.25;19.00;;;;;12.33;48.23;100797.97;4990872;28;45279;-83
2022/03/11 03:07:35;;;;;;;;;20.75;18.75;;;;;12.31;48.25;100798.88;4999065;28;46571;-82
2022/03/11 03:10:01;;;;;;;;;21.50;20.25;;;;;12.29;48.52;100793.59;4990682;28;45172;-83
2022/03/11 03:12:27;;;;;;;;;18.25;17.00;;;;;12.32;48.49;100803.25;5005160;28;45293;-84
2022/03/11 03:14:53;;;;;;;;;23.50;18.75;;;;;12.23;48.48;100793.66;5009571;28;45412;-84
2022/03/11 03:17:19;;;;;;;;;24.00;23.50;;;;;12.20;48.56;100785.78;4995736;28;47846;-83
2022/03/11 03:19:45;;;;;;;;;20.00;17.75;;;;;12.15;48.97;100782.31;4973164;28;45326;-83
2022/03/11 03:22:11;;;;;;;;;22.50;17.50;;;;;12.08;48.90;100768.31;4985833;28;45495;-83
2022/03/11 03:24:36;;;;;;;;;17.75;17.50;;;;;12.13;49.08;100776.16;5003309;28;45506;-84
2022/03/11 03:27:02;;;;;;;;;16.00;16.00;;;;;12.05;49.37;100767.44;4993840;28;48080;-84
2022/03/11 03:29:28;;;;;;;;;22.75;20.00;;;;;11.94;49.71;100759.63;4990122;28;45152;-82
2022/03/11 03:31:57;;;;;;;;;19.25;18.25;;;;;11.99;49.62;100762.25;5003797;28;45332;-84
2022/03/11 03:34:31;;;;;;;;;21.00;18.75;;;;;11.96;49.67;100772.81;5001624;28;45539;-83
2022/03/11 03:37:00;;;;;;;;;22.50;22.00;;;;;11.89;49.93;100769.34;4982120;28;48352;-83
2022/03/11 03:39:29;;;;;;;;;21.00;18.50;;;;;11.83;50.20;100758.84;4994385;28;45398;-84
2022/03/11 03:41:56;;;;;;;;;20.75;16.75;;;;;11.82;50.09;100757.97;4989832;28;45318;-84
2022/03/11 03:44:24;;;;;;;;;21.00;17.00;;;;;11.80;50.11;100758.88;4999810;28;45827;-84
2022/03/11 03:46:50;;;;;;;;;20.25;19.25;;;;;11.85;50.03;100775.53;4996832;28;47240;-83
2022/03/11 03:49:18;;;;;;;;;19.75;17.00;;;;;11.77;49.95;100762.41;5000054;28;45739;-83
2022/03/11 03:51:44;;;;;;;;;18.00;17.50;;;;;11.68;50.64;100742.25;5001890;28;45315;-84
2022/03/11 03:54:10;;;;;;;;;21.25;20.75;;;;;11.64;50.55;100739.66;4983264;28;45647;-82
2022/03/11 03:56:39;;;;;;;;;17.75;16.75;;;;;11.71;50.39;100746.63;4984333;28;47286;-84
2022/03/11 03:59:06;;;;;;;;;18.00;17.75;;;;;11.74;50.93;100756.28;4984081;28;45379;-84
2022/03/11 04:01:36;;;;;;;;;18.00;16.00;;;;;11.72;50.70;100760.69;4984759;28;45456;-84
2022/03/11 04:04:03;;;;;;;;;21.75;17.75;;;;;11.65;51.17;100751.94;5002485;28;45181;-84
2022/03/11 04:06:29;;;;;;;;;17.75;16.00;;;;;11.55;51.23;100732.69;4999447;28;46979;-84
2022/03/11 04:08:56;;;;;;;;;20.00;18.00;;;;;11.61;51.52;100756.38;5004111;28;45469;-83
2022/03/11 04:11:26;;;;;;;;;21.25;18.50;;;;;11.55;51.09;100751.16;5003147;28;45439;-83
2022/03/11 04:13:52;;;;;;;;;22.25;20.00;;;;;11.47;51.91;100735.41;5004496;28;45222;-84
2022/03/11 04:16:19;;;;;;;;;20.25;18.00;;;;;11.45;51.91;100741.56;5001243;28;47181;-82
2022/03/11 04:18:45;;;;;;;;;20.25;20.25;;;;;11.46;51.79;100741.53;4988455;28;45395;-83
2022/03/11 04:21:11;;;;;;;;;22.00;19.50;;;;;11.47;52.16;100743.31;4988286;28;45358;-83
2022/03/11 04:23:37;;;;;;;;;17.50;17.00;;;;;11.41;52.21;100742.44;5002833;28;45294;-83
2022/03/11 04:26:03;;;;;;;;;20.00;19.00;;;;;11.37;52.05;100738.97;5002533;28;46033;-85
2022/03/11 04:28:28;;;;;;;;;21.00;16.75;;;;;11.40;52.36;100743.34;4997173;28;45393;-84
2022/03/11 04:30:54;;;;;;;;;18.50;15.00;;;;;11.35;52.36;100740.75;4995957;28;45303;-84
2022/03/11 04:33:20;;;;;;;;;18.50;15.50;;;;;11.26;52.07;100720.59;4983581;28;45504;-83
2022/03/11 04:35:46;;;;;;;;;16.75;16.75;;;;;11.33;52.34;100739.88;4983788;28;46954;-84
2022/03/11 04:38:12;;;;;;;;;17.25;14.75;;;;;11.32;52.43;100734.63;4980783;28;45247;-84
2022/03/11 04:40:38;;;;;;;;;17.00;17.00;;;;;11.19;52.67;100716.25;4983442;28;45323;-84
2022/03/11 04:43:04;;;;;;;;;16.50;15.00;;;;;11.29;53.01;100724.97;5001280;28;45527;-84
2022/03/11 04:45:29;;;;;;;;;23.25;21.25;;;;;11.24;53.03;100734.66;4983431;28;47942;-84
2022/03/11 04:47:55;;;;;;;;;15.75;14.25;;;;;11.27;53.15;100748.69;4980375;28;45471;-84
2022/03/11 04:50:20;;;;;;;;;16.00;16.00;;;;;11.23;53.15;100731.16;4979178;28;45255;-84
2022/03/11 04:52:46;;;;;;;;;17.00;13.50;;;;;11.25;54.03;100744.31;4981634;28;45250;-81
2022/03/11 04:55:12;;;;;;;;;18.00;15.00;;;;;11.21;53.86;100738.19;4997054;28;45321;-84
2022/03/11 04:57:37;;;;;;;;;17.75;17.00;;;;;11.14;54.25;100720.66;5002091;28;45360;-83
2022/03/11 05:00:04;;;;;;;;;14.00;13.00;;;;;11.13;53.91;100728.59;5002927;28;45367;-84
2022/03/11 05:02:30;;;;;;;;;12.50;11.50;;;;;11.17;54.21;100725.94;5002708;28;45171;-84
2022/03/11 05:04:56;;;;;;;;;13.00;11.50;;;;;11.04;54.21;100709.34;4985002;28;48439;-84
2022/03/11 05:07:22;;;;;;;;;11.75;10.75;;;;;11.13;54.38;100724.19;5006410;28;45253;-84
2022/03/11 05:09:48;;;;;;;;;14.25;11.75;;;;;11.15;54.11;100732.09;4988002;28;45191;-83
2022/03/11 05:12:14;;;;;;;;;13.75;12.75;;;;;11.11;54.16;100730.38;5005948;28;45278;-83
2022/03/11 05:14:40;;;;;;;;;13.00;13.00;;;;;11.04;54.26;100714.59;5004722;28;46410;-83
2022/03/11 05:17:05;;;;;;;;;14.50;14.00;;;;;11.01;54.58;100711.09;4994391;28;45452;-83
2022/03/11 05:19:31;;;;;;;;;13.00;12.00;;;;;11.03;54.70;100706.69;4975214;28;45295;-83
2022/03/11 05:21:56;;;;;;;;;15.00;11.25;;;;;10.96;54.44;100699.72;5005605;28;45313;-82
2022/03/11 05:24:22;;;;;;;;;16.75;13.00;;;;;10.99;55.14;100708.50;5004344;28;45660;-82
2022/03/11 05:26:48;;;;;;;;;14.75;13.00;;;;;10.89;54.81;100692.75;4987002;28;45415;-82
2022/03/11 05:29:15;;;;;;;;;11.25;11.25;;;;;10.88;55.05;100690.97;5005006;28;45397;-82
2022/03/11 05:31:41;;;;;;;;;13.25;12.25;;;;;10.89;55.24;100701.50;4987273;28;45282;-82
2022/03/11 05:34:07;;;;;;;;;14.00;12.25;;;;;10.87;54.85;100695.38;5004665;28;45510;-83
2022/03/11 05:36:32;;;;;;;;;13.75;12.50;;;;;10.81;55.96;100679.63;5005026;28;45226;-83
2022/03/11 05:38:58;;;;;;;;;11.75;11.50;;;;;10.77;55.58;100683.13;4994298;28;45238;-83
2022/03/11 05:41:23;;;;;;;;;12.75;10.00;;;;;10.70;55.32;100670.91;4987155;28;45455;-83
2022/03/11 05:43:49;;;;;;;;;14.00;13.00;;;;;10.81;55.63;100690.16;4986976;28;48075;-82
2022/03/11 05:46:14;;;;;;;;;8.75;8.25;;;;;10.72;55.82;100675.28;4987122;28;45385;-82
2022/03/11 05:48:40;;;;;;;;;10.25;9.75;;;;;10.73;56.13;100692.81;5004297;28;45428;-82
2022/03/11 05:51:05;;;;;;;;;11.50;11.50;;;;;10.65;55.58;100676.19;4983756;28;45533;-83
2022/03/11 05:53:31;;;;;;;;;12.00;10.50;;;;;10.68;55.81;100685.84;4999170;28;45629;-83
2022/03/11 05:55:56;;;;;;;;;11.50;11.25;;;;;10.54;56.28;100668.34;5004417;28;45386;-83
2022/03/11 05:58:22;;;;;;;;;10.00;10.00;;;;;10.62;55.96;100678.84;5002122;28;45338;-83
2022/03/11 06:00:47;;;;;;;;;10.75;10.25;;;;;10.52;56.26;100670.09;5001619;28;45388;-84
2022/03/11 06:03:16;;;;;;;;;13.50;11.50;;;;;10.58;55.99;100682.38;5001290;28;46119;-84
2022/03/11 06:05:41;;;;;;;;;14.75;13.00;;;;;10.59;56.18;100690.25;4984001;28;45269;-84
2022/03/11 06:08:07;;;;;;;;;10.00;9.00;;;;;10.54;56.56;100672.75;4998194;28;45263;-83
2022/03/11 06:10:32;;;;;;;;;11.00;9.75;;;;;10.56;56.69;100677.13;5001622;28;45452;-84
2022/03/11 06:12:58;;;;;;;;;11.00;10.50;;;;;10.53;56.66;100673.59;4981444;28;47242;-83
2022/03/11 06:15:23;;;;;;;;;12.75;10.75;;;;;10.51;56.62;100676.25;5001255;28;45202;-83
2022/03/11 06:17:49;;;;;;;;;9.75;9.75;;;;;10.48;56.55;100671.03;4983659;28;45538;-83
2022/03/11 06:20:14;;;;;;;;;12.00;9.75;;;;;10.52;56.58;100664.84;4970998;28;45473;-83
2022/03/11 06:22:47;;;;;;;;;16.00;11.75;;;;;10.63;56.88;100688.47;5001068;28;45542;-83
2022/03/11 06:25:14;;;;;;;;;10.00;9.00;;;;;10.63;56.15;100682.34;4983559;28;45345;-83
2022/03/11 06:27:39;;;;;;;;;12.25;8.75;;;;;10.59;56.58;100676.22;4997725;28;45435;-86
2022/03/11 06:30:06;;;;;;;;;12.00;12.00;;;;;10.56;56.62;100665.72;4981918;28;45469;-85
2022/03/11 06:32:31;;;;;;;;;11.00;10.75;;;;;10.55;56.92;100670.09;4996354;28;46153;-85
2022/03/11 06:34:57;;;;;;;;;11.75;10.50;;;;;10.63;56.94;100683.22;4983298;28;45444;-84
2022/03/11 06:37:46;;;;;;;;;13.75;11.75;;;;;10.55;56.53;100661.31;4980979;28;45379;-85
2022/03/11 06:40:14;;;;;;;;;11.50;10.25;;;;;10.53;56.67;100656.09;4991080;28;45538;-86
2022/03/11 06:42:55;;;;;;;;;;;;;;;;;;;;;
2022/03/11 06:45:30;;;;;;;;;14.50;9.75;;;;;10.64;56.72;100673.56;4994178;28;71568;-86
2022/03/11 06:47:56;;;;;;;;;13.50;12.25;;;;;10.61;56.55;100653.38;5001015;28;45318;-87
2022/03/11 06:50:21;;;;;;;;;8.75;8.00;;;;;10.66;56.59;100661.25;5000528;28;45222;-84
2022/03/11 06:52:47;;;;;;;;;11.25;10.75;;;;;10.72;56.71;100666.50;4996548;28;47735;-84
2022/03/11 06:55:13;;;;;;;;;10.00;9.00;;;;;10.72;56.56;100669.13;4975714;28;45648;-84
2022/03/11 06:57:39;;;;;;;;;10.25;9.50;;;;;10.77;56.48;100669.97;4998494;28;45316;-84
2022/03/11 07:00:19;;;;;;;;;8.50;6.50;;;;;10.66;56.51;100656.88;4999884;28;45557;-86
2022/03/11 07:02:45;;;;;;;;;10.00;9.75;;;;;10.73;56.95;100657.72;4987093;28;47001;-86
2022/03/11 07:05:18;;;;;;;;;9.00;9.00;;;;;10.68;56.68;100641.06;5009547;28;45331;-87
2022/03/11 07:13:44;;;;;;;;;9.25;9.00;;;;;10.86;56.78;100669.94;5134553;23;73822;-82
2022/03/11 07:16:41;;;;;;;;;10.75;9.25;;;;;10.84;56.85;100666.44;4982364;28;45314;-84
2022/03/11 07:20:23;;;;;;;;;;;;;;;;;;;;;
2022/03/11 07:23:00;;;;;;;;;;;;;;;;;;;;;
2022/03/11 07:25:26;;;;;;;;;9.00;9.00;;;;;10.81;56.44;100648.03;5000367;28;75780;-86
2022/03/11 07:42:11;;;;;;;;;11.50;10.50;;;;;11.17;56.08;100654.81;5155951;23;45238;-85
2022/03/11 07:49:01;;;;;;;;;;;;;;;;;;;;;
2022/03/11 08:23:39;;;;;;;;;5.75;5.75;;;;;11.96;54.20;100618.03;5485429;22;46922;-82
2022/03/11 08:26:48;;;;;;;;;9.00;8.00;;;;;11.95;53.97;100597.84;4993928;28;45563;-82
2022/03/11 08:29:26;;;;;;;;;9.75;8.75;;;;;12.02;53.79;100585.44;4956181;28;45598;-82
2022/03/11 14:09:30;;;;;;;;;8.00;7.00;;;;;15.05;52.90;100496.84;4925541;28;45275;-83
2022/03/11 16:28:46;;;;;;;;;2.00;2.00;;;;;12.51;62.13;100564.53;4899661;28;45528;-86
2022/03/11 16:50:15;;;;;;;;;1.00;0.00;;;;;12.49;61.69;100560.19;5803148;23;47463;-80
2022/03/11 16:53:23;;;;;;;;;0.00;0.00;;;;;12.55;61.71;100579.44;4933878;28;45520;-81
2022/03/11 16:59:23;;;;;;;;;2.00;1.00;;;;;12.58;61.48;100581.16;4875294;28;45564;-83
2022/03/11 17:02:21;;;;;;;;;2.00;2.00;;;;;12.51;61.69;100576.84;4920377;28;45407;-83
2022/03/11 17:05:06;;;;;;;;;2.25;1.50;;;;;12.48;62.06;100576.91;4910509;28;45546;-80
2022/03/11 17:08:12;;;;;;;;;2.75;1.00;;;;;12.49;61.83;100598.00;4896564;28;45431;-81
2022/03/11 17:15:06;;;;;;;;;;;;;;;;;;;;;
2022/03/11 17:17:58;;;;;;;;;1.50;1.50;;;;;12.45;62.35;100569.03;4916054;28;73077;-82
2022/03/11 17:20:40;;;;;;;;;;;;;;;;;;;;;
2022/03/11 17:23:06;;;;;;;;;3.25;3.00;;;;;12.42;62.34;100553.22;4923730;28;73992;-80
2022/03/11 17:25:36;;;;;;;;;2.00;2.00;;;;;12.48;63.24;100571.63;4895665;28;46922;-81
2022/03/11 17:28:24;;;;;;;;;2.75;2.75;;;;;12.50;62.98;100586.53;4901971;28;45470;-82
2022/03/11 17:31:10;;;;;;;;;3.00;3.00;;;;;12.48;62.81;100596.28;4918515;28;45243;-82
2022/03/11 17:34:47;;;;;;;;;;;;;;;;;;;;;
2022/03/11 17:40:52;;;;;;;;;2.50;2.00;;;;;12.62;62.34;100627.78;4830608;29;45371;-81
2022/03/11 17:43:56;;;;;;;;;2.50;2.50;;;;;12.52;62.57;100608.53;4905309;28;45479;-82
2022/03/11 17:46:25;;;;;;;;;2.00;2.00;;;;;12.63;62.42;100618.06;4917158;28;45455;-81
2022/03/11 17:49:00;;;;;;;;;;;;;;;;;;;;;
2022/03/11 17:51:27;;;;;;;;;5.00;5.00;;;;;12.59;62.42;100601.41;4920356;28;71963;-80
2022/03/11 18:08:05;;;;;;;;;;;;;;;;;;;;;
2022/03/11 18:14:25;;;;;;;;;3.75;3.00;;;;;12.44;63.36;100643.84;4738754;29;46587;-81
2022/03/11 18:16:52;;;;;;;;;5.50;4.75;;;;;12.47;63.22;100651.72;4736523;29;45507;-80
2022/03/11 18:19:18;;;;;;;;;6.50;6.00;;;;;12.44;63.37;100651.78;4763769;29;45368;-80
2022/03/11 18:22:12;;;;;;;;;7.25;6.50;;;;;12.41;63.26;100647.41;4781228;29;45439;-83
2022/03/11 18:24:48;;;;;;;;;3.00;3.00;;;;;12.51;63.50;100658.72;4830200;29;45451;-81
2022/03/11 18:27:48;;;;;;;;;3.00;3.00;;;;;12.41;63.49;100642.13;4828375;29;45896;-82
2022/03/11 18:49:05;;;;;;;;;;;;;;;;;;;;;
2022/03/11 18:51:49;;;;;;;;;;;;;;;;;;;;;
2022/03/11 18:54:17;;;;;;;;;7.25;6.75;;;;;12.33;63.62;100673.91;4918913;28;68688;-79
2022/03/11 18:56:48;;;;;;;;;7.00;6.00;;;;;12.29;63.73;100664.25;4902857;28;45512;-81
2022/03/11 18:59:30;;;;;;;;;;;;;;;;;;;;;
2022/03/11 19:02:52;;;;;;;;;;;;;;;;;;;;;
2022/03/11 19:05:27;;;;;;;;;5.00;5.00;;;;;12.28;63.95;100670.44;4894855;28;67925;-81
2022/03/11 23:19:25;;;;;;;;;4.00;4.00;;;;;10.80;67.30;100859.59;5563659;22;15651204;-77
2022/03/11 23:21:53;;;;;;;;;2.00;2.00;;;;;10.83;67.16;100862.22;6265913;22;45359;-77
2022/03/11 23:24:20;;;;;;;;;4.00;3.00;;;;;10.83;66.94;100870.09;6250222;22;45551;-76
2022/03/11 23:26:52;;;;;;;;;5.00;3.00;;;;;10.76;66.77;100847.28;6278855;22;45374;-78
2022/03/11 23:29:30;;;;;;;;;;;;;;;;;;;;;
2022/03/11 23:31:58;;;;;;;;;5.50;3.25;;;;;10.87;67.11;100863.06;6274751;22;68836;-76
2022/03/11 23:34:25;;;;;;;;;5.00;4.00;;;;;10.77;66.79;100857.84;6277675;22;45455;-77
2022/03/11 23:36:51;;;;;;;;;2.00;2.00;;;;;10.77;66.87;100867.47;6280310;22;45694;-77
2022/03/11 23:39:21;;;;;;;;;3.25;3.25;;;;;10.85;66.92;100884.13;6279909;22;45481;-77
2022/03/11 23:41:51;;;;;;;;;4.25;3.00;;;;;10.78;66.90;100872.75;6252182;22;45413;-77
2022/03/11 23:44:16;;;;;;;;;3.50;2.25;;;;;10.67;66.99;100857.88;6247463;22;45610;-78
2022/03/11 23:46:46;;;;;;;;;3.25;3.00;;;;;10.75;67.17;100872.75;6247043;22;46635;-79
2022/03/11 23:49:25;;;;;;;;;;;;;;;;;;;;;
2022/03/11 23:51:59;;;;;;;;;4.00;4.00;;;;;10.72;67.23;100893.84;6275592;22;67889;-79
2022/03/11 23:54:34;;;;;;;;;5.00;3.00;;;;;10.69;67.06;100885.03;6274978;22;45594;-78
2022/03/11 23:57:18;;;;;;;;;;;;;;;;;;;;;
2022/03/11 23:59:50;;;;;;;;;2.75;2.50;;;;;10.65;66.92;100878.91;6278572;22;71042;-79
